sensor_id;sensor_type;location;lat;lon;timestamp;pressure;altitude;pressure_sealevel;temperature;humidity
9249;BME280;4660;41.768;26.198;2023-03-01T00:01:40;101656.19;;;8.09;100.00
9249;BME280;4660;41.768;26.198;2023-03-01T00:04:09;101651.94;;;8.19;100.00
9249;BME280;4660;41.768;26.198;2023-03-01T00:06:36;101639.72;;;8.15;100.00
9249;BME280;4660;41.768;26.198;2023-03-01T00:09:04;101637.97;;;8.14;100.00
9249;BME280;4660;41.768;26.198;2023-03-01T00:11:32;101645.47;;;8.09;100.00
9249;BME280;4660;41.768;26.198;2023-03-01T00:14:00;101633.69;;;8.12;100.00
9249;BME280;4660;41.768;26.198;2023-03-01T00:16:34;101639.66;;;8.03;100.00
9249;BME280;4660;41.768;26.198;2023-03-01T00:19:02;101621.03;;;8.01;100.00
9249;BME280;4660;41.768;26.198;2023-03-01T00:21:29;101621.81;;;8.16;100.00
9249;BME280;4660;41.768;26.198;2023-03-01T00:23:56;101638.88;;;8.27;100.00
9249;BME280;4660;41.768;26.198;2023-03-01T00:26:27;101638.78;;;8.29;100.00
9249;BME280;4660;41.768;26.198;2023-03-01T00:28:54;101637.25;;;8.25;100.00
9249;BME280;4660;41.768;26.198;2023-03-01T00:31:30;101636.00;;;8.31;100.00
9249;BME280;4660;41.768;26.198;2023-03-01T00:34:02;101632.81;;;8.38;100.00
9249;BME280;4660;41.768;26.198;2023-03-01T00:36:40;101630.75;;;8.29;100.00
9249;BME280;4660;41.768;26.198;2023-03-01T00:39:11;101622.16;;;8.24;100.00
9249;BME280;4660;41.768;26.198;2023-03-01T00:41:38;101624.28;;;8.19;100.00
9249;BME280;4660;41.768;26.198;2023-03-01T00:44:07;101629.22;;;8.25;100.00
9249;BME280;4660;41.768;26.198;2023-03-01T00:46:34;101597.13;;;8.11;100.00
9249;BME280;4660;41.768;26.198;2023-03-01T00:49:01;101609.00;;;8.07;100.00
9249;BME280;4660;41.768;26.198;2023-03-01T00:51:29;101619.31;;;8.13;100.00
9249;BME280;4660;41.768;26.198;2023-03-01T00:53:58;101610.53;;;8.11;100.00
9249;BME280;4660;41.768;26.198;2023-03-01T00:56:26;101612.06;;;8.27;100.00
9249;BME280;4660;41.768;26.198;2023-03-01T00:58:53;101615.66;;;8.14;100.00
9249;BME280;4660;41.768;26.198;2023-03-01T01:01:25;101603.88;;;8.04;100.00
9249;BME280;4660;41.768;26.198;2023-03-01T01:03:57;101603.00;;;8.03;100.00
9249;BME280;4660;41.768;26.198;2023-03-01T01:06:33;101593.91;;;8.06;100.00
9249;BME280;4660;41.768;26.198;2023-03-01T01:09:00;101597.94;;;7.98;100.00
9249;BME280;4660;41.768;26.198;2023-03-01T01:11:28;101596.19;;;7.85;100.00
9249;BME280;4660;41.768;26.198;2023-03-01T01:13:56;101596.28;;;7.83;100.00
9249;BME280;4660;41.768;26.198;2023-03-01T01:16:26;101590.06;;;8.10;100.00
9249;BME280;4660;41.768;26.198;2023-03-01T01:18:55;101591.81;;;8.23;100.00
9249;BME280;4660;41.768;26.198;2023-03-01T01:21:23;101599.25;;;8.45;100.00
9249;BME280;4660;41.768;26.198;2023-03-01T01:23:52;101591.56;;;8.26;100.00
9249;BME280;4660;41.768;26.198;2023-03-01T01:26:24;101598.56;;;8.29;100.00
9249;BME280;4660;41.768;26.198;2023-03-01T01:28:51;101602.19;;;8.15;100.00
9249;BME280;4660;41.768;26.198;2023-03-01T01:31:21;101592.41;;;8.14;100.00
9249;BME280;4660;41.768;26.198;2023-03-01T01:33:54;101593.69;;;8.09;100.00
9249;BME280;4660;41.768;26.198;2023-03-01T01:36:20;101580.91;;;7.99;100.00
9249;BME280;4660;41.768;26.198;2023-03-01T01:38:47;101590.63;;;8.15;100.00
9249;BME280;4660;41.768;26.198;2023-03-01T01:41:14;101599.19;;;8.20;100.00
9249;BME280;4660;41.768;26.198;2023-03-01T01:43:44;101605.72;;;8.28;100.00
9249;BME280;4660;41.768;26.198;2023-03-01T01:46:31;101599.56;;;8.41;100.00
9249;BME280;4660;41.768;26.198;2023-03-01T01:49:35;101593.66;;;8.36;100.00
9249;BME280;4660;41.768;26.198;2023-03-01T01:52:31;101591.84;;;8.36;100.00
9249;BME280;4660;41.768;26.198;2023-03-01T01:55:18;101592.53;;;8.25;100.00
9249;BME280;4660;41.768;26.198;2023-03-01T01:57:58;101596.19;;;8.24;100.00
9249;BME280;4660;41.768;26.198;2023-03-01T02:00:29;101605.91;;;8.40;100.00
9249;BME280;4660;41.768;26.198;2023-03-01T02:03:01;101596.03;;;8.40;100.00
9249;BME280;4660;41.768;26.198;2023-03-01T02:05:49;101595.91;;;8.42;100.00
9249;BME280;4660;41.768;26.198;2023-03-01T02:08:19;101597.28;;;8.22;100.00
9249;BME280;4660;41.768;26.198;2023-03-01T02:10:48;101592.53;;;8.25;100.00
9249;BME280;4660;41.768;26.198;2023-03-01T02:13:15;101580.31;;;8.21;100.00
9249;BME280;4660;41.768;26.198;2023-03-01T02:15:45;101578.94;;;8.16;100.00
9249;BME280;4660;41.768;26.198;2023-03-01T02:18:14;101577.97;;;8.17;100.00
9249;BME280;4660;41.768;26.198;2023-03-01T02:21:11;101583.31;;;8.17;100.00
9249;BME280;4660;41.768;26.198;2023-03-01T02:23:40;101585.25;;;8.15;100.00
9249;BME280;4660;41.768;26.198;2023-03-01T02:29:10;101565.97;;;8.35;100.00
9249;BME280;4660;41.768;26.198;2023-03-01T02:31:37;101567.28;;;8.42;100.00
9249;BME280;4660;41.768;26.198;2023-03-01T02:34:28;101562.75;;;8.43;100.00
9249;BME280;4660;41.768;26.198;2023-03-01T02:37:09;101562.94;;;8.27;100.00
9249;BME280;4660;41.768;26.198;2023-03-01T02:39:45;101563.06;;;8.25;100.00
9249;BME280;4660;41.768;26.198;2023-03-01T02:42:18;101564.41;;;8.06;100.00
9249;BME280;4660;41.768;26.198;2023-03-01T02:44:49;101562.94;;;8.02;100.00
9249;BME280;4660;41.768;26.198;2023-03-01T02:47:16;101557.31;;;7.92;100.00
9249;BME280;4660;41.768;26.198;2023-03-01T02:49:43;101525.72;;;7.97;100.00
9249;BME280;4660;41.768;26.198;2023-03-01T02:55:14;101552.81;;;8.45;100.00
9249;BME280;4660;41.768;26.198;2023-03-01T02:57:46;101549.88;;;8.22;100.00
9249;BME280;4660;41.768;26.198;2023-03-01T03:00:23;101544.06;;;8.16;100.00
9249;BME280;4660;41.768;26.198;2023-03-01T03:02:55;101546.22;;;8.11;100.00
9249;BME280;4660;41.768;26.198;2023-03-01T03:05:25;101539.13;;;8.10;100.00
9249;BME280;4660;41.768;26.198;2023-03-01T03:07:53;101546.94;;;8.13;100.00
9249;BME280;4660;41.768;26.198;2023-03-01T03:10:32;101537.63;;;8.06;100.00
9249;BME280;4660;41.768;26.198;2023-03-01T03:13:09;101535.50;;;8.11;100.00
9249;BME280;4660;41.768;26.198;2023-03-01T03:15:35;101528.41;;;8.10;100.00
9249;BME280;4660;41.768;26.198;2023-03-01T03:18:05;101526.81;;;8.20;100.00
9249;BME280;4660;41.768;26.198;2023-03-01T03:20:33;101531.00;;;8.24;100.00
9249;BME280;4660;41.768;26.198;2023-03-01T03:23:01;101520.56;;;8.07;100.00
9249;BME280;4660;41.768;26.198;2023-03-01T03:25:32;101536.00;;;8.03;100.00
9249;BME280;4660;41.768;26.198;2023-03-01T03:28:06;101543.84;;;7.93;100.00
9249;BME280;4660;41.768;26.198;2023-03-01T03:30:36;101537.34;;;7.83;100.00
9249;BME280;4660;41.768;26.198;2023-03-01T03:33:06;101546.59;;;7.92;100.00
9249;BME280;4660;41.768;26.198;2023-03-01T03:35:39;101540.50;;;8.03;100.00
9249;BME280;4660;41.768;26.198;2023-03-01T03:38:17;101542.38;;;8.15;100.00
9249;BME280;4660;41.768;26.198;2023-03-01T03:40:52;101543.22;;;8.15;100.00
9249;BME280;4660;41.768;26.198;2023-03-01T03:43:23;101539.66;;;8.27;100.00
9249;BME280;4660;41.768;26.198;2023-03-01T03:45:53;101543.66;;;8.22;100.00
9249;BME280;4660;41.768;26.198;2023-03-01T03:48:20;101527.00;;;8.04;100.00
9249;BME280;4660;41.768;26.198;2023-03-01T03:50:52;101531.06;;;7.97;100.00
9249;BME280;4660;41.768;26.198;2023-03-01T03:53:19;101537.69;;;7.91;100.00
9249;BME280;4660;41.768;26.198;2023-03-01T03:58:32;101534.81;;;7.94;100.00
9249;BME280;4660;41.768;26.198;2023-03-01T04:00:59;101516.47;;;7.88;100.00
9249;BME280;4660;41.768;26.198;2023-03-01T04:03:29;101526.00;;;7.92;100.00
9249;BME280;4660;41.768;26.198;2023-03-01T04:06:05;101537.84;;;8.03;100.00
9249;BME280;4660;41.768;26.198;2023-03-01T04:08:33;101525.59;;;7.98;100.00
9249;BME280;4660;41.768;26.198;2023-03-01T04:11:01;101526.44;;;7.99;100.00
9249;BME280;4660;41.768;26.198;2023-03-01T04:13:47;101510.28;;;7.88;100.00
9249;BME280;4660;41.768;26.198;2023-03-01T04:16:15;101509.50;;;7.73;100.00
9249;BME280;4660;41.768;26.198;2023-03-01T04:18:41;101517.53;;;7.73;100.00
9249;BME280;4660;41.768;26.198;2023-03-01T04:21:11;101513.56;;;7.91;100.00
9249;BME280;4660;41.768;26.198;2023-03-01T04:23:39;101512.09;;;7.87;100.00
9249;BME280;4660;41.768;26.198;2023-03-01T04:26:07;101507.88;;;7.83;100.00
9249;BME280;4660;41.768;26.198;2023-03-01T04:28:40;101507.66;;;7.73;100.00
9249;BME280;4660;41.768;26.198;2023-03-01T04:31:17;101506.72;;;8.00;100.00
9249;BME280;4660;41.768;26.198;2023-03-01T04:33:50;101508.44;;;7.88;100.00
9249;BME280;4660;41.768;26.198;2023-03-01T04:36:26;101512.94;;;7.88;100.00
9249;BME280;4660;41.768;26.198;2023-03-01T04:38:55;101511.88;;;7.90;100.00
9249;BME280;4660;41.768;26.198;2023-03-01T04:41:26;101529.69;;;8.04;100.00
9249;BME280;4660;41.768;26.198;2023-03-01T04:43:53;101523.69;;;8.00;100.00
9249;BME280;4660;41.768;26.198;2023-03-01T04:46:21;101529.25;;;7.97;100.00
9249;BME280;4660;41.768;26.198;2023-03-01T04:48:48;101540.41;;;8.04;100.00
9249;BME280;4660;41.768;26.198;2023-03-01T04:51:16;101545.91;;;8.15;100.00
9249;BME280;4660;41.768;26.198;2023-03-01T04:53:43;101538.38;;;8.08;100.00
9249;BME280;4660;41.768;26.198;2023-03-01T04:56:11;101545.38;;;8.23;100.00
9249;BME280;4660;41.768;26.198;2023-03-01T04:58:40;101538.97;;;8.38;100.00
9249;BME280;4660;41.768;26.198;2023-03-01T05:01:17;101536.59;;;8.46;100.00
9249;BME280;4660;41.768;26.198;2023-03-01T05:03:58;101545.38;;;8.36;100.00
9249;BME280;4660;41.768;26.198;2023-03-01T05:06:33;101556.63;;;8.15;100.00
9249;BME280;4660;41.768;26.198;2023-03-01T05:09:04;101559.75;;;8.22;100.00
9249;BME280;4660;41.768;26.198;2023-03-01T05:11:33;101562.06;;;8.14;100.00
9249;BME280;4660;41.768;26.198;2023-03-01T05:14:04;101561.03;;;8.29;100.00
9249;BME280;4660;41.768;26.198;2023-03-01T05:16:30;101558.13;;;8.32;100.00
9249;BME280;4660;41.768;26.198;2023-03-01T05:18:59;101559.53;;;8.25;100.00
9249;BME280;4660;41.768;26.198;2023-03-01T05:21:25;101553.94;;;8.28;100.00
9249;BME280;4660;41.768;26.198;2023-03-01T05:23:51;101543.22;;;8.15;100.00
9249;BME280;4660;41.768;26.198;2023-03-01T05:26:19;101544.72;;;8.19;100.00
9249;BME280;4660;41.768;26.198;2023-03-01T05:28:50;101550.31;;;8.29;100.00
9249;BME280;4660;41.768;26.198;2023-03-01T05:31:17;101551.25;;;8.28;100.00
9249;BME280;4660;41.768;26.198;2023-03-01T05:33:43;101556.63;;;8.15;100.00
9249;BME280;4660;41.768;26.198;2023-03-01T05:36:10;101537.63;;;8.18;100.00
9249;BME280;4660;41.768;26.198;2023-03-01T05:38:36;101552.19;;;8.14;100.00
9249;BME280;4660;41.768;26.198;2023-03-01T05:41:04;101544.50;;;8.10;100.00
9249;BME280;4660;41.768;26.198;2023-03-01T05:43:31;101559.91;;;8.06;100.00
9249;BME280;4660;41.768;26.198;2023-03-01T05:46:01;101553.41;;;8.23;100.00
9249;BME280;4660;41.768;26.198;2023-03-01T05:48:28;101517.28;;;8.16;100.00
9249;BME280;4660;41.768;26.198;2023-03-01T05:50:54;101539.53;;;8.43;100.00
9249;BME280;4660;41.768;26.198;2023-03-01T05:53:21;101547.47;;;8.58;100.00
9249;BME280;4660;41.768;26.198;2023-03-01T05:55:48;101532.72;;;8.25;100.00
9249;BME280;4660;41.768;26.198;2023-03-01T05:58:18;101542.28;;;8.29;100.00
9249;BME280;4660;41.768;26.198;2023-03-01T06:00:47;101554.81;;;8.16;100.00
9249;BME280;4660;41.768;26.198;2023-03-01T06:03:16;101549.97;;;8.08;100.00
9249;BME280;4660;41.768;26.198;2023-03-01T06:05:44;101554.38;;;8.22;100.00
9249;BME280;4660;41.768;26.198;2023-03-01T06:08:12;101545.34;;;8.10;100.00
9249;BME280;4660;41.768;26.198;2023-03-01T06:10:40;101567.66;;;8.11;100.00
9249;BME280;4660;41.768;26.198;2023-03-01T06:13:06;101573.31;;;8.06;100.00
9249;BME280;4660;41.768;26.198;2023-03-01T06:15:35;101574.09;;;8.21;100.00
9249;BME280;4660;41.768;26.198;2023-03-01T06:18:02;101578.50;;;8.22;100.00
9249;BME280;4660;41.768;26.198;2023-03-01T06:20:29;101584.09;;;8.32;100.00
9249;BME280;4660;41.768;26.198;2023-03-01T06:22:56;101543.19;;;8.03;100.00
9249;BME280;4660;41.768;26.198;2023-03-01T06:25:28;101564.59;;;8.42;100.00
9249;BME280;4660;41.768;26.198;2023-03-01T06:27:58;101575.97;;;8.46;100.00
9249;BME280;4660;41.768;26.198;2023-03-01T06:30:26;101541.44;;;8.41;100.00
9249;BME280;4660;41.768;26.198;2023-03-01T06:32:54;101579.53;;;8.72;100.00
9249;BME280;4660;41.768;26.198;2023-03-01T06:35:28;101578.03;;;8.68;100.00
9249;BME280;4660;41.768;26.198;2023-03-01T06:38:07;101574.47;;;8.54;100.00
9249;BME280;4660;41.768;26.198;2023-03-01T06:40:34;101577.34;;;8.64;100.00
9249;BME280;4660;41.768;26.198;2023-03-01T06:43:02;101574.78;;;8.75;100.00
9249;BME280;4660;41.768;26.198;2023-03-01T06:45:30;101563.09;;;8.76;100.00
9249;BME280;4660;41.768;26.198;2023-03-01T06:48:06;101564.91;;;8.76;100.00
9249;BME280;4660;41.768;26.198;2023-03-01T06:50:34;101569.66;;;8.72;100.00
9249;BME280;4660;41.768;26.198;2023-03-01T06:53:01;101572.97;;;8.76;100.00
9249;BME280;4660;41.768;26.198;2023-03-01T06:55:29;101574.56;;;8.78;100.00
9249;BME280;4660;41.768;26.198;2023-03-01T06:57:59;101541.00;;;8.47;100.00
9249;BME280;4660;41.768;26.198;2023-03-01T07:00:30;101581.88;;;8.51;100.00
9249;BME280;4660;41.768;26.198;2023-03-01T07:03:01;101581.44;;;8.57;100.00
9249;BME280;4660;41.768;26.198;2023-03-01T07:05:29;101488.31;;;8.08;100.00
9249;BME280;4660;41.768;26.198;2023-03-01T07:07:59;101557.84;;;8.49;100.00
9249;BME280;4660;41.768;26.198;2023-03-01T07:10:26;101568.03;;;8.44;100.00
9249;BME280;4660;41.768;26.198;2023-03-01T07:12:56;101569.66;;;8.47;100.00
9249;BME280;4660;41.768;26.198;2023-03-01T07:15:25;101574.38;;;8.43;100.00
9249;BME280;4660;41.768;26.198;2023-03-01T07:17:53;101588.31;;;8.61;100.00
9249;BME280;4660;41.768;26.198;2023-03-01T07:20:21;101588.09;;;8.64;100.00
9249;BME280;4660;41.768;26.198;2023-03-01T07:22:55;101575.88;;;8.47;100.00
9249;BME280;4660;41.768;26.198;2023-03-01T07:25:26;101565.78;;;8.38;100.00
9249;BME280;4660;41.768;26.198;2023-03-01T07:27:55;101544.53;;;8.35;100.00
9249;BME280;4660;41.768;26.198;2023-03-01T07:30:23;101578.56;;;8.73;100.00
9249;BME280;4660;41.768;26.198;2023-03-01T07:32:54;101576.31;;;8.79;100.00
9249;BME280;4660;41.768;26.198;2023-03-01T07:35:29;101571.78;;;8.54;100.00
9249;BME280;4660;41.768;26.198;2023-03-01T07:37:56;101573.81;;;8.64;100.00
9249;BME280;4660;41.768;26.198;2023-03-01T07:40:22;101574.78;;;8.63;100.00
9249;BME280;4660;41.768;26.198;2023-03-01T07:42:49;101568.47;;;8.76;100.00
9249;BME280;4660;41.768;26.198;2023-03-01T07:45:16;101570.41;;;8.74;100.00
9249;BME280;4660;41.768;26.198;2023-03-01T07:47:43;101548.50;;;8.68;100.00
9249;BME280;4660;41.768;26.198;2023-03-01T07:50:10;101557.81;;;9.00;100.00
9249;BME280;4660;41.768;26.198;2023-03-01T07:52:40;101551.97;;;9.06;100.00
9249;BME280;4660;41.768;26.198;2023-03-01T07:55:08;101548.41;;;9.19;100.00
9249;BME280;4660;41.768;26.198;2023-03-01T07:57:37;101547.16;;;9.35;100.00
9249;BME280;4660;41.768;26.198;2023-03-01T08:00:06;101546.78;;;9.29;100.00
9249;BME280;4660;41.768;26.198;2023-03-01T08:02:36;101541.44;;;9.16;100.00
9249;BME280;4660;41.768;26.198;2023-03-01T08:05:03;101546.66;;;9.30;100.00
9249;BME280;4660;41.768;26.198;2023-03-01T08:07:30;101521.50;;;9.07;100.00
9249;BME280;4660;41.768;26.198;2023-03-01T08:09:57;101548.22;;;9.09;100.00
9249;BME280;4660;41.768;26.198;2023-03-01T08:12:24;101556.16;;;9.10;100.00
9249;BME280;4660;41.768;26.198;2023-03-01T08:14:51;101525.41;;;8.78;100.00
9249;BME280;4660;41.768;26.198;2023-03-01T08:17:19;101558.75;;;8.99;100.00
9249;BME280;4660;41.768;26.198;2023-03-01T08:19:46;101559.75;;;8.86;100.00
9249;BME280;4660;41.768;26.198;2023-03-01T08:22:13;101546.88;;;8.91;100.00
9249;BME280;4660;41.768;26.198;2023-03-01T08:24:40;101559.81;;;9.09;100.00
9249;BME280;4660;41.768;26.198;2023-03-01T08:27:07;101553.06;;;9.04;100.00
9249;BME280;4660;41.768;26.198;2023-03-01T08:29:34;101552.31;;;9.15;100.00
9249;BME280;4660;41.768;26.198;2023-03-01T08:32:00;101548.28;;;9.20;100.00
9249;BME280;4660;41.768;26.198;2023-03-01T08:34:26;101548.69;;;9.27;100.00
9249;BME280;4660;41.768;26.198;2023-03-01T08:36:53;101550.41;;;9.28;100.00
9249;BME280;4660;41.768;26.198;2023-03-01T08:39:20;101539.91;;;9.25;100.00
9249;BME280;4660;41.768;26.198;2023-03-01T08:41:47;101546.00;;;9.27;100.00
9249;BME280;4660;41.768;26.198;2023-03-01T08:44:18;101559.22;;;9.30;100.00
9249;BME280;4660;41.768;26.198;2023-03-01T08:46:46;101561.09;;;9.17;100.00
9249;BME280;4660;41.768;26.198;2023-03-01T08:49:16;101551.75;;;9.22;100.00
9249;BME280;4660;41.768;26.198;2023-03-01T08:51:44;101558.81;;;9.23;100.00
9249;BME280;4660;41.768;26.198;2023-03-01T08:54:14;101547.47;;;9.07;100.00
9249;BME280;4660;41.768;26.198;2023-03-01T08:56:41;101563.91;;;9.39;100.00
9249;BME280;4660;41.768;26.198;2023-03-01T08:59:14;101553.41;;;9.36;100.00
9249;BME280;4660;41.768;26.198;2023-03-01T09:01:44;101555.97;;;9.37;100.00
9249;BME280;4660;41.768;26.198;2023-03-01T09:04:14;101553.34;;;9.25;100.00
9249;BME280;4660;41.768;26.198;2023-03-01T09:06:42;101556.75;;;9.27;100.00
9249;BME280;4660;41.768;26.198;2023-03-01T09:09:15;101538.75;;;9.16;100.00
9249;BME280;4660;41.768;26.198;2023-03-01T09:11:50;101565.59;;;9.16;100.00
9249;BME280;4660;41.768;26.198;2023-03-01T09:14:16;101557.44;;;9.18;100.00
9249;BME280;4660;41.768;26.198;2023-03-01T09:16:42;101552.59;;;9.23;100.00
9249;BME280;4660;41.768;26.198;2023-03-01T09:19:10;101556.59;;;9.41;100.00
9249;BME280;4660;41.768;26.198;2023-03-01T09:21:39;101556.06;;;9.73;100.00
9249;BME280;4660;41.768;26.198;2023-03-01T09:24:15;101543.03;;;9.90;100.00
9249;BME280;4660;41.768;26.198;2023-03-01T09:26:42;101543.88;;;9.80;100.00
9249;BME280;4660;41.768;26.198;2023-03-01T09:29:09;101539.13;;;9.59;100.00
9249;BME280;4660;41.768;26.198;2023-03-01T09:31:36;101536.25;;;9.50;100.00
9249;BME280;4660;41.768;26.198;2023-03-01T09:34:02;101545.56;;;9.57;100.00
9249;BME280;4660;41.768;26.198;2023-03-01T09:36:30;101535.31;;;9.51;100.00
9249;BME280;4660;41.768;26.198;2023-03-01T09:38:57;101544.84;;;9.55;100.00
9249;BME280;4660;41.768;26.198;2023-03-01T09:41:43;101548.38;;;9.55;100.00
9249;BME280;4660;41.768;26.198;2023-03-01T09:47:21;101542.94;;;9.68;100.00
9249;BME280;4660;41.768;26.198;2023-03-01T09:50:20;101550.09;;;9.56;100.00
9249;BME280;4660;41.768;26.198;2023-03-01T09:53:07;101558.63;;;9.50;100.00
9249;BME280;4660;41.768;26.198;2023-03-01T09:55:50;101548.09;;;9.47;100.00
9249;BME280;4660;41.768;26.198;2023-03-01T09:58:50;101557.66;;;9.51;100.00
9249;BME280;4660;41.768;26.198;2023-03-01T10:07:55;101548.16;;;9.58;100.00
9249;BME280;4660;41.768;26.198;2023-03-01T10:10:38;101545.13;;;9.87;100.00
9249;BME280;4660;41.768;26.198;2023-03-01T10:13:22;101539.53;;;9.66;100.00
9249;BME280;4660;41.768;26.198;2023-03-01T10:16:17;101538.75;;;9.64;100.00
9249;BME280;4660;41.768;26.198;2023-03-01T10:18:54;101536.03;;;9.53;100.00
9249;BME280;4660;41.768;26.198;2023-03-01T10:21:22;101522.91;;;9.37;100.00
9249;BME280;4660;41.768;26.198;2023-03-01T10:23:53;101517.97;;;9.31;100.00
9249;BME280;4660;41.768;26.198;2023-03-01T10:29:13;101513.91;;;9.49;100.00
9249;BME280;4660;41.768;26.198;2023-03-01T10:31:52;101525.72;;;9.71;100.00
9249;BME280;4660;41.768;26.198;2023-03-01T10:34:31;101519.75;;;9.67;100.00
9249;BME280;4660;41.768;26.198;2023-03-01T10:37:20;101518.53;;;9.47;100.00
9249;BME280;4660;41.768;26.198;2023-03-01T10:40:14;101516.19;;;9.19;100.00
9249;BME280;4660;41.768;26.198;2023-03-01T10:42:51;101518.69;;;9.09;100.00
9249;BME280;4660;41.768;26.198;2023-03-01T10:45:39;101492.50;;;9.00;100.00
9249;BME280;4660;41.768;26.198;2023-03-01T10:48:13;101507.59;;;9.14;100.00
9249;BME280;4660;41.768;26.198;2023-03-01T10:50:45;101491.81;;;9.22;100.00
9249;BME280;4660;41.768;26.198;2023-03-01T10:53:41;101518.25;;;9.39;100.00
9249;BME280;4660;41.768;26.198;2023-03-01T10:56:14;101502.44;;;9.47;100.00
9249;BME280;4660;41.768;26.198;2023-03-01T10:58:57;101500.91;;;9.32;100.00
9249;BME280;4660;41.768;26.198;2023-03-01T11:01:29;101486.91;;;9.16;100.00
9249;BME280;4660;41.768;26.198;2023-03-01T11:06:37;101482.72;;;9.12;100.00
9249;BME280;4660;41.768;26.198;2023-03-01T11:09:25;101489.28;;;9.07;100.00
9249;BME280;4660;41.768;26.198;2023-03-01T11:12:16;101490.25;;;9.06;100.00
9249;BME280;4660;41.768;26.198;2023-03-01T11:14:55;101489.19;;;9.33;100.00
9249;BME280;4660;41.768;26.198;2023-03-01T11:17:31;101480.94;;;9.47;100.00
9249;BME280;4660;41.768;26.198;2023-03-01T11:20:39;101467.75;;;9.20;100.00
9249;BME280;4660;41.768;26.198;2023-03-01T11:23:11;101462.44;;;9.07;100.00
9249;BME280;4660;41.768;26.198;2023-03-01T11:25:42;101482.38;;;9.16;100.00
9249;BME280;4660;41.768;26.198;2023-03-01T11:28:14;101461.47;;;9.08;100.00
9249;BME280;4660;41.768;26.198;2023-03-01T11:31:04;101449.97;;;9.06;100.00
9249;BME280;4660;41.768;26.198;2023-03-01T11:36:58;101457.34;;;9.40;100.00
9249;BME280;4660;41.768;26.198;2023-03-01T11:42:19;101435.53;;;9.44;100.00
9249;BME280;4660;41.768;26.198;2023-03-01T11:44:54;101443.34;;;9.47;100.00
9249;BME280;4660;41.768;26.198;2023-03-01T11:50:47;101425.47;;;9.11;100.00
9249;BME280;4660;41.768;26.198;2023-03-01T12:05:36;101440.56;;;9.25;100.00
9249;BME280;4660;41.768;26.198;2023-03-01T12:08:29;101436.47;;;9.08;100.00
9249;BME280;4660;41.768;26.198;2023-03-01T12:44:06;101433.34;;;8.77;100.00
9249;BME280;4660;41.768;26.198;2023-03-01T12:49:45;101420.41;;;8.95;100.00
9249;BME280;4660;41.768;26.198;2023-03-01T12:52:58;101419.59;;;9.06;100.00
9249;BME280;4660;41.768;26.198;2023-03-01T12:55:40;101432.13;;;8.94;100.00
9249;BME280;4660;41.768;26.198;2023-03-01T13:07:48;101426.34;;;8.88;100.00
9249;BME280;4660;41.768;26.198;2023-03-01T13:10:49;101417.47;;;8.74;100.00
9249;BME280;4660;41.768;26.198;2023-03-01T13:13:26;101383.38;;;8.64;100.00
9249;BME280;4660;41.768;26.198;2023-03-01T13:15:53;101371.75;;;8.76;100.00
9249;BME280;4660;41.768;26.198;2023-03-01T13:21:04;101439.38;;;8.68;100.00
9249;BME280;4660;41.768;26.198;2023-03-01T13:23:39;101432.13;;;8.58;100.00
9249;BME280;4660;41.768;26.198;2023-03-01T13:26:17;101373.59;;;8.13;100.00
9249;BME280;4660;41.768;26.198;2023-03-01T13:28:48;101437.81;;;8.53;100.00
9249;BME280;4660;41.768;26.198;2023-03-01T13:33:53;101438.69;;;8.41;100.00
9249;BME280;4660;41.768;26.198;2023-03-01T13:39:18;101423.13;;;8.46;100.00
9249;BME280;4660;41.768;26.198;2023-03-01T13:41:55;101426.56;;;8.35;100.00
9249;BME280;4660;41.768;26.198;2023-03-01T13:44:41;101410.91;;;8.16;100.00
9249;BME280;4660;41.768;26.198;2023-03-01T13:47:17;101425.91;;;8.06;100.00
9249;BME280;4660;41.768;26.198;2023-03-01T13:49:48;101403.63;;;8.06;100.00
9249;BME280;4660;41.768;26.198;2023-03-01T13:52:42;101399.53;;;8.00;100.00
9249;BME280;4660;41.768;26.198;2023-03-01T13:55:52;101412.44;;;8.08;100.00
9249;BME280;4660;41.768;26.198;2023-03-01T13:58:33;101413.91;;;7.99;100.00
9249;BME280;4660;41.768;26.198;2023-03-01T14:01:04;101423.53;;;8.27;100.00
9249;BME280;4660;41.768;26.198;2023-03-01T14:03:41;101412.81;;;8.27;100.00
9249;BME280;4660;41.768;26.198;2023-03-01T14:06:17;101430.44;;;8.44;100.00
9249;BME280;4660;41.768;26.198;2023-03-01T14:08:48;101435.38;;;8.37;100.00
9249;BME280;4660;41.768;26.198;2023-03-01T14:22:44;101423.56;;;8.02;100.00
9249;BME280;4660;41.768;26.198;2023-03-01T14:25:34;101432.00;;;8.21;100.00
9249;BME280;4660;41.768;26.198;2023-03-01T14:28:26;101445.75;;;8.29;100.00
9249;BME280;4660;41.768;26.198;2023-03-01T14:30:58;101432.00;;;8.21;100.00
9249;BME280;4660;41.768;26.198;2023-03-01T14:33:39;101435.91;;;8.17;100.00
9249;BME280;4660;41.768;26.198;2023-03-01T14:36:12;101434.72;;;8.08;100.00
9249;BME280;4660;41.768;26.198;2023-03-01T14:38:43;101417.25;;;8.03;100.00
9249;BME280;4660;41.768;26.198;2023-03-01T14:41:22;101434.91;;;8.05;100.00
9249;BME280;4660;41.768;26.198;2023-03-01T14:43:59;101430.09;;;7.97;100.00
9249;BME280;4660;41.768;26.198;2023-03-01T14:46:43;101452.53;;;8.22;100.00
9249;BME280;4660;41.768;26.198;2023-03-01T14:49:22;101454.44;;;8.33;100.00
9249;BME280;4660;41.768;26.198;2023-03-01T14:52:22;101458.63;;;8.24;100.00
9249;BME280;4660;41.768;26.198;2023-03-01T14:54:55;101436.00;;;8.03;100.00
9249;BME280;4660;41.768;26.198;2023-03-01T14:57:25;101446.31;;;8.09;100.00
9249;BME280;4660;41.768;26.198;2023-03-01T14:59:54;101452.41;;;8.11;100.00
9249;BME280;4660;41.768;26.198;2023-03-01T15:02:24;101456.16;;;8.08;100.00
9249;BME280;4660;41.768;26.198;2023-03-01T15:04:54;101459.38;;;8.13;100.00
9249;BME280;4660;41.768;26.198;2023-03-01T15:07:30;101455.63;;;8.16;100.00
9249;BME280;4660;41.768;26.198;2023-03-01T15:10:16;101446.97;;;8.38;100.00
9249;BME280;4660;41.768;26.198;2023-03-01T15:12:47;101424.84;;;8.47;100.00
9249;BME280;4660;41.768;26.198;2023-03-01T15:18:21;101467.97;;;8.44;100.00
9249;BME280;4660;41.768;26.198;2023-03-01T15:20:51;101451.88;;;8.31;100.00
9249;BME280;4660;41.768;26.198;2023-03-01T15:23:31;101448.44;;;8.29;100.00